createdAt,value
2022-08-23T00:01:21.266Z,99.90
2022-08-23T00:03:53.332Z,99.90
2022-08-23T00:06:22.706Z,99.90
2022-08-23T00:08:51.950Z,99.90
2022-08-23T00:11:31.181Z,99.90
2022-08-23T00:14:00.798Z,99.90
2022-08-23T00:16:29.679Z,99.90
2022-08-23T00:18:57.602Z,99.90
2022-08-23T00:21:25.508Z,99.90
2022-08-23T00:23:53.573Z,99.90
2022-08-23T00:26:21.621Z,99.90
2022-08-23T00:28:51.045Z,99.90
2022-08-23T00:31:20.132Z,99.90
2022-08-23T00:33:48.062Z,99.90
2022-08-23T00:36:15.933Z,99.90
2022-08-23T00:38:43.906Z,99.90
2022-08-23T00:41:11.721Z,99.90
2022-08-23T00:44:00.418Z,99.90
2022-08-23T00:46:58.189Z,99.90
2022-08-23T00:49:27.662Z,99.90
2022-08-23T00:52:00.924Z,99.90
2022-08-23T00:54:31.130Z,99.90
2022-08-23T00:57:02.478Z,99.90
2022-08-23T00:59:30.343Z,99.90
2022-08-23T01:02:00.414Z,99.90
2022-08-23T01:04:31.783Z,99.90
2022-08-23T01:07:08.385Z,99.90
2022-08-23T01:09:39.083Z,99.90
2022-08-23T01:12:10.482Z,99.90
2022-08-23T01:14:42.550Z,99.90
2022-08-23T01:17:16.200Z,99.90
2022-08-23T01:19:49.589Z,99.90
2022-08-23T01:22:22.746Z,99.90
2022-08-23T01:25:08.316Z,99.90
2022-08-23T01:27:37.180Z,99.90
2022-08-23T01:30:07.086Z,99.90
2022-08-23T01:32:42.472Z,99.90
2022-08-23T01:35:11.348Z,99.90
2022-08-23T01:37:39.484Z,99.90
2022-08-23T01:40:10.014Z,99.90
2022-08-23T01:42:41.713Z,99.90
2022-08-23T01:45:12.162Z,99.90
2022-08-23T01:47:41.170Z,99.90
2022-08-23T01:50:12.915Z,99.90
2022-08-23T01:52:46.972Z,99.90
2022-08-23T01:55:17.133Z,99.90
2022-08-23T01:57:48.217Z,99.90
2022-08-23T02:00:17.238Z,99.90
2022-08-23T02:02:47.043Z,99.90
2022-08-23T02:05:18.903Z,99.90
2022-08-23T02:07:47.272Z,99.90
2022-08-23T02:10:17.530Z,99.90
2022-08-23T02:12:46.602Z,99.90
2022-08-23T02:15:15.516Z,99.90
2022-08-23T02:17:44.425Z,99.90
2022-08-23T02:20:14.142Z,99.90
2022-08-23T02:22:43.390Z,99.90
2022-08-23T02:25:11.488Z,99.90
2022-08-23T02:27:44.184Z,99.90
2022-08-23T02:30:13.305Z,99.90
2022-08-23T02:32:42.228Z,99.90
2022-08-23T02:35:10.749Z,99.90
2022-08-23T02:37:39.028Z,99.90
2022-08-23T02:40:07.885Z,99.90
2022-08-23T02:42:35.787Z,99.90
2022-08-23T02:45:08.294Z,99.90
2022-08-23T02:47:37.258Z,99.90
2022-08-23T02:50:05.278Z,99.90
2022-08-23T02:52:33.253Z,99.90
2022-08-23T02:55:01.114Z,99.90
2022-08-23T02:57:30.940Z,99.90
2022-08-23T02:59:59.753Z,99.90
2022-08-23T03:02:29.331Z,99.90
2022-08-23T03:04:57.389Z,99.90
2022-08-23T03:07:25.202Z,99.90
2022-08-23T03:09:53.045Z,99.90
2022-08-23T03:12:21.119Z,99.90
2022-08-23T03:14:51.305Z,99.90
2022-08-23T03:17:21.045Z,99.90
2022-08-23T03:19:52.282Z,99.90
2022-08-23T03:22:20.596Z,99.90
2022-08-23T03:24:48.567Z,99.90
2022-08-23T03:27:16.600Z,99.90
2022-08-23T03:29:44.442Z,99.90
2022-08-23T03:32:12.380Z,99.90
2022-08-23T03:34:43.569Z,99.90
2022-08-23T03:37:12.704Z,99.90
2022-08-23T03:39:40.626Z,99.90
2022-08-23T03:42:09.125Z,99.90
2022-08-23T03:44:36.940Z,99.90
2022-08-23T03:47:05.919Z,99.90
2022-08-23T03:49:33.886Z,99.90
2022-08-23T03:52:02.166Z,99.90
2022-08-23T03:54:31.735Z,99.90
2022-08-23T03:57:02.695Z,99.90
2022-08-23T03:59:32.558Z,99.90
2022-08-23T04:02:00.782Z,99.90
2022-08-23T04:04:29.050Z,99.90
2022-08-23T04:06:57.244Z,99.90
2022-08-23T04:09:25.207Z,99.90
2022-08-23T04:11:54.470Z,99.90
2022-08-23T04:14:22.472Z,99.90
2022-08-23T04:16:50.641Z,99.90
2022-08-23T04:19:18.594Z,99.90
2022-08-23T04:21:49.509Z,99.90
2022-08-23T04:24:18.912Z,99.90
2022-08-23T04:26:49.442Z,99.90
2022-08-23T04:29:22.930Z,99.90
2022-08-23T04:32:02.807Z,99.90
2022-08-23T04:34:34.303Z,99.90
2022-08-23T04:37:02.437Z,99.90
2022-08-23T04:39:51.645Z,99.90
2022-08-23T04:42:23.093Z,99.90
2022-08-23T04:44:52.761Z,99.90
2022-08-23T04:47:21.310Z,99.90
2022-08-23T04:49:49.455Z,99.90
2022-08-23T04:52:19.369Z,99.90
2022-08-23T04:54:47.728Z,99.90
2022-08-23T04:57:16.420Z,99.90
2022-08-23T04:59:44.273Z,99.90
2022-08-23T05:02:14.435Z,99.90
2022-08-23T05:04:42.427Z,99.90
2022-08-23T05:07:10.775Z,99.90
2022-08-23T05:09:38.592Z,99.90
2022-08-23T05:12:06.717Z,99.90
2022-08-23T05:14:34.886Z,99.90
2022-08-23T05:17:03.052Z,99.90
2022-08-23T05:19:33.236Z,99.90
2022-08-23T05:22:02.429Z,99.90
2022-08-23T05:24:30.457Z,99.90
2022-08-23T05:26:58.390Z,99.90
2022-08-23T05:29:26.166Z,99.90
2022-08-23T05:31:55.492Z,99.90
2022-08-23T05:34:23.516Z,99.90
2022-08-23T05:36:55.345Z,99.90
2022-08-23T05:39:32.822Z,99.90
2022-08-23T05:42:04.823Z,99.90
2022-08-23T05:44:36.744Z,99.90
2022-08-23T05:47:11.090Z,99.90
2022-08-23T05:49:40.481Z,99.90
2022-08-23T05:52:11.979Z,99.90
2022-08-23T05:54:40.400Z,99.90
2022-08-23T05:57:08.663Z,99.90
2022-08-23T05:59:36.534Z,99.90
2022-08-23T06:02:04.631Z,99.90
2022-08-23T06:04:32.961Z,99.90
2022-08-23T06:07:00.849Z,99.90
2022-08-23T06:09:30.098Z,99.90
2022-08-23T06:11:58.667Z,99.90
2022-08-23T06:14:26.745Z,99.90
2022-08-23T06:16:56.270Z,99.90
2022-08-23T06:19:24.942Z,99.90
2022-08-23T06:21:53.750Z,99.90
2022-08-23T06:24:23.231Z,99.90
2022-08-23T06:26:52.408Z,99.90
2022-08-23T06:29:21.657Z,99.90
2022-08-23T06:31:52.655Z,99.90
2022-08-23T06:34:22.955Z,99.90
2022-08-23T06:36:53.926Z,99.90
2022-08-23T06:39:23.216Z,99.90
2022-08-23T06:41:52.931Z,99.90
2022-08-23T06:44:21.782Z,99.90
2022-08-23T06:46:49.735Z,99.90
2022-08-23T06:49:18.317Z,98.50
2022-08-23T06:51:49.520Z,95.90
2022-08-23T06:54:21.935Z,94.60
2022-08-23T06:56:50.846Z,95.00
2022-08-23T06:59:21.193Z,96.80
2022-08-23T07:01:53.525Z,96.30
2022-08-23T07:04:24.300Z,95.90
2022-08-23T07:06:52.438Z,95.90
2022-08-23T07:09:20.562Z,96.80
2022-08-23T07:11:48.738Z,96.80
2022-08-23T07:14:18.453Z,98.00
2022-08-23T07:16:50.987Z,97.00
2022-08-23T07:19:21.110Z,95.70
2022-08-23T07:21:49.795Z,94.50
2022-08-23T07:24:17.772Z,96.00
2022-08-23T07:26:47.562Z,97.00
2022-08-23T07:29:16.766Z,96.70
2022-08-23T07:31:47.598Z,97.10
2022-08-23T07:34:15.731Z,96.20
2022-08-23T07:36:45.624Z,96.20
2022-08-23T07:39:14.262Z,93.00
2022-08-23T07:41:42.414Z,93.40
2022-08-23T07:44:11.595Z,92.60
2022-08-23T07:46:42.552Z,90.70
2022-08-23T07:49:13.344Z,89.90
2022-08-23T07:51:42.659Z,83.60
2022-08-23T07:54:11.624Z,81.70
2022-08-23T07:56:39.697Z,80.80
2022-08-23T07:59:08.347Z,76.60
2022-08-23T08:01:37.543Z,75.00
2022-08-23T08:04:06.995Z,73.00
2022-08-23T08:06:39.939Z,70.90
2022-08-23T08:09:08.583Z,64.30
2022-08-23T08:11:37.662Z,67.60
2022-08-23T08:14:08.251Z,66.80
2022-08-23T08:16:38.454Z,67.90
2022-08-23T08:19:09.534Z,65.20
2022-08-23T08:21:42.170Z,64.10
2022-08-23T08:24:12.911Z,65.60
2022-08-23T08:26:41.429Z,65.20
2022-08-23T08:29:11.082Z,66.50
2022-08-23T08:31:39.820Z,66.10
2022-08-23T08:34:08.575Z,66.90
2022-08-23T08:36:39.717Z,68.70
2022-08-23T08:39:10.498Z,69.10
2022-08-23T08:41:48.470Z,69.70
2022-08-23T08:44:33.003Z,72.00
2022-08-23T08:47:00.858Z,72.40
2022-08-23T08:49:38.430Z,73.50
2022-08-23T08:52:16.767Z,76.00
2022-08-23T08:54:48.275Z,77.60
2022-08-23T08:57:22.641Z,79.20
2022-08-23T09:00:00.951Z,81.30
2022-08-23T09:02:34.129Z,82.90
2022-08-23T09:05:07.007Z,83.50
2022-08-23T09:07:47.652Z,84.10
2022-08-23T09:10:45.696Z,84.00
2022-08-23T09:13:46.369Z,82.50
2022-08-23T09:16:25.973Z,85.50
2022-08-23T09:18:54.608Z,84.70
2022-08-23T09:21:22.901Z,85.10
2022-08-23T09:24:01.115Z,86.10
2022-08-23T09:26:31.392Z,85.30
2022-08-23T09:29:03.005Z,86.00
2022-08-23T09:31:38.299Z,86.50
2022-08-23T09:34:07.373Z,87.50
2022-08-23T09:36:38.304Z,87.20
2022-08-23T09:39:24.125Z,86.80
2022-08-23T09:42:00.732Z,87.20
2022-08-23T09:44:36.653Z,88.00
2022-08-23T09:47:11.082Z,88.70
2022-08-23T09:49:40.619Z,88.30
2022-08-23T09:52:22.234Z,88.00
2022-08-23T09:55:03.348Z,88.00
2022-08-23T09:57:33.605Z,89.30
2022-08-23T10:00:03.378Z,88.20
2022-08-23T10:02:34.649Z,88.30
2022-08-23T10:05:05.787Z,87.80
2022-08-23T10:07:40.329Z,88.10
2022-08-23T10:10:24.534Z,87.40
2022-08-23T10:12:54.250Z,86.10
2022-08-23T10:15:45.635Z,87.20
2022-08-23T10:18:25.485Z,85.60
2022-08-23T10:21:02.993Z,85.00
2022-08-23T10:23:42.846Z,85.70
2022-08-23T10:26:21.722Z,85.10
2022-08-23T10:29:13.699Z,85.40
2022-08-23T10:31:51.826Z,84.50
2022-08-23T10:34:38.176Z,83.80
2022-08-23T10:37:24.393Z,81.70
2022-08-23T10:40:03.695Z,84.40
2022-08-23T10:42:41.258Z,82.70
2022-08-23T10:45:17.960Z,83.00
2022-08-23T10:47:58.806Z,83.20
2022-08-23T10:50:28.712Z,81.80
2022-08-23T10:53:03.168Z,83.60
2022-08-23T10:55:44.261Z,83.20
2022-08-23T10:58:19.878Z,83.90
2022-08-23T11:00:48.260Z,84.70
2022-08-23T11:03:28.885Z,84.40
2022-08-23T11:06:26.380Z,84.20
2022-08-23T11:09:03.025Z,84.50
2022-08-23T11:11:40.048Z,84.30
2022-08-23T11:14:10.722Z,85.40
2022-08-23T11:16:43.210Z,85.60
2022-08-23T11:19:15.629Z,86.30
2022-08-23T11:21:49.625Z,86.30
2022-08-23T11:24:50.246Z,86.10
2022-08-23T11:27:31.126Z,86.00
2022-08-23T11:30:38.790Z,86.80
2022-08-23T11:33:17.496Z,86.70
2022-08-23T11:35:48.491Z,86.70
2022-08-23T11:38:22.618Z,87.10
2022-08-23T11:41:23.586Z,86.70
2022-08-23T11:44:23.365Z,85.70
2022-08-23T11:47:01.827Z,85.70
2022-08-23T11:49:52.979Z,85.90
2022-08-23T11:52:35.967Z,86.50
2022-08-23T11:55:24.878Z,87.40
2022-08-23T11:58:06.589Z,85.20
2022-08-23T12:01:06.086Z,86.20
2022-08-23T12:03:37.593Z,85.10
2022-08-23T12:06:12.613Z,85.70
2022-08-23T12:08:55.379Z,85.70
2022-08-23T12:11:25.853Z,86.10
2022-08-23T12:14:02.658Z,85.90
2022-08-23T12:16:44.257Z,86.10
2022-08-23T12:19:30.322Z,86.00
2022-08-23T12:22:03.101Z,86.60
2022-08-23T12:24:35.567Z,85.30
2022-08-23T12:27:12.819Z,85.60
2022-08-23T12:29:56.697Z,85.70
2022-08-23T12:32:33.949Z,86.10
2022-08-23T12:35:21.274Z,85.50
2022-08-23T12:37:55.894Z,84.50
2022-08-23T12:40:28.865Z,85.00
2022-08-23T12:43:05.505Z,84.80
2022-08-23T12:45:41.611Z,85.40
2022-08-23T12:48:15.223Z,84.90
2022-08-23T12:50:45.347Z,85.40
2022-08-23T12:53:15.582Z,85.20
2022-08-23T12:55:47.083Z,85.20
2022-08-23T12:58:16.172Z,85.60
2022-08-23T13:00:53.314Z,85.60
2022-08-23T13:03:28.010Z,86.00
2022-08-23T13:06:01.973Z,86.00
2022-08-23T13:08:35.544Z,86.70
2022-08-23T13:11:07.820Z,86.80
2022-08-23T13:13:39.183Z,87.00
2022-08-23T13:16:27.286Z,86.50
2022-08-23T13:19:11.030Z,84.60
2022-08-23T13:21:39.903Z,85.00
2022-08-23T13:24:38.440Z,84.90
2022-08-23T13:27:22.557Z,83.80
2022-08-23T13:29:51.935Z,84.60
2022-08-23T13:32:29.632Z,84.30
2022-08-23T13:35:30.415Z,83.30
2022-08-23T13:38:01.335Z,83.30
2022-08-23T13:40:33.279Z,84.90
2022-08-23T13:43:04.939Z,85.40
2022-08-23T13:45:45.863Z,85.80
2022-08-23T13:48:17.851Z,86.00
2022-08-23T13:50:47.391Z,85.30
2022-08-23T13:53:17.656Z,84.90
2022-08-23T13:55:48.889Z,85.20
2022-08-23T13:58:25.968Z,85.10
2022-08-23T14:00:55.342Z,85.30
2022-08-23T14:03:24.159Z,85.40
2022-08-23T14:05:53.766Z,86.50
2022-08-23T14:08:22.282Z,87.70
2022-08-23T14:10:51.171Z,89.70
2022-08-23T14:13:20.655Z,90.10
2022-08-23T14:15:58.848Z,90.80
2022-08-23T14:18:37.160Z,91.00
2022-08-23T14:21:06.591Z,91.20
2022-08-23T14:23:34.361Z,91.50
2022-08-23T14:26:02.458Z,91.40
2022-08-23T14:28:31.262Z,90.90
2022-08-23T14:30:59.171Z,90.50
2022-08-23T14:33:27.179Z,89.90
2022-08-23T14:35:56.141Z,89.40
2022-08-23T14:38:25.551Z,89.00
2022-08-23T14:40:57.707Z,88.60
2022-08-23T14:43:26.946Z,88.60
2022-08-23T14:45:55.484Z,86.00
2022-08-23T14:48:25.169Z,87.80
2022-08-23T14:50:53.785Z,87.80
2022-08-23T14:53:27.569Z,87.80
2022-08-23T14:56:18.722Z,87.40
2022-08-23T14:58:44.522Z,88.00
2022-08-23T15:01:13.543Z,87.90
2022-08-23T15:03:42.148Z,87.80
2022-08-23T15:06:10.393Z,87.80
2022-08-23T15:08:43.317Z,86.50
2022-08-23T15:14:03.414Z,86.00
2022-08-23T15:16:31.545Z,85.80
2022-08-23T15:18:59.989Z,86.30
2022-08-23T15:21:27.993Z,87.00
2022-08-23T15:23:57.276Z,87.00
2022-08-23T15:26:29.545Z,86.40
2022-08-23T15:28:57.683Z,84.90
2022-08-23T15:31:26.169Z,85.80
2022-08-23T15:33:54.008Z,86.00
2022-08-23T15:36:22.711Z,86.20
2022-08-23T15:38:51.806Z,86.40
2022-08-23T15:41:21.977Z,86.50
2022-08-23T15:43:49.820Z,87.60
2022-08-23T15:46:21.420Z,87.00
2022-08-23T15:48:53.994Z,90.10
2022-08-23T15:51:22.038Z,91.50
2022-08-23T15:53:49.976Z,92.50
2022-08-23T15:56:23.385Z,93.40
2022-08-23T15:58:53.519Z,94.00
2022-08-23T16:01:24.702Z,94.40
2022-08-23T16:03:54.671Z,94.90
2022-08-23T16:06:23.340Z,96.00
2022-08-23T16:08:53.693Z,96.00
2022-08-23T16:11:24.283Z,97.10
2022-08-23T16:13:55.221Z,98.30
2022-08-23T16:16:27.139Z,99.90
2022-08-23T16:18:57.810Z,99.90
2022-08-23T16:21:29.684Z,99.90
2022-08-23T16:23:59.056Z,99.90
2022-08-23T16:26:34.562Z,99.90
2022-08-23T16:29:03.541Z,99.90
2022-08-23T16:31:37.627Z,99.90
2022-08-23T16:34:08.945Z,99.90
2022-08-23T16:36:37.126Z,99.90
2022-08-23T16:39:05.738Z,99.90
2022-08-23T16:41:34.937Z,99.90
2022-08-23T16:44:02.834Z,99.90
2022-08-23T16:46:30.858Z,99.90
2022-08-23T16:48:59.054Z,99.90
2022-08-23T16:51:27.320Z,99.90
2022-08-23T16:54:02.503Z,99.90
2022-08-23T16:56:31.072Z,99.90
2022-08-23T16:59:00.472Z,99.90
2022-08-23T17:01:29.208Z,99.90
2022-08-23T17:03:57.611Z,99.90
2022-08-23T17:06:25.694Z,99.90
2022-08-23T17:08:53.486Z,99.90
2022-08-23T17:11:23.792Z,99.90
2022-08-23T17:13:57.871Z,99.90
2022-08-23T17:16:35.177Z,99.90
2022-08-23T17:19:03.140Z,99.90
2022-08-23T17:21:31.108Z,99.90
2022-08-23T17:23:59.372Z,99.90
2022-08-23T17:26:27.477Z,99.90
2022-08-23T17:28:56.368Z,99.90
2022-08-23T17:31:24.317Z,99.90
2022-08-23T17:33:53.746Z,99.90
2022-08-23T17:36:33.484Z,99.90
2022-08-23T17:39:01.930Z,99.90
2022-08-23T17:41:29.857Z,99.90
2022-08-23T17:44:03.404Z,99.90
2022-08-23T17:46:31.233Z,99.90
2022-08-23T17:49:00.360Z,99.90
2022-08-23T17:51:28.728Z,99.90
2022-08-23T17:53:56.669Z,99.90
2022-08-23T17:56:26.943Z,99.90
2022-08-23T17:58:55.213Z,99.90
2022-08-23T18:01:23.138Z,99.90
2022-08-23T18:03:51.333Z,99.90
2022-08-23T18:06:21.185Z,99.90
2022-08-23T18:08:49.458Z,99.90
2022-08-23T18:11:17.487Z,99.90
2022-08-23T18:13:45.664Z,99.90
2022-08-23T18:16:13.844Z,99.90
2022-08-23T18:18:41.728Z,99.90
2022-08-23T18:21:12.612Z,99.90
2022-08-23T18:23:42.494Z,99.90
2022-08-23T18:26:32.715Z,99.90
2022-08-23T18:29:02.528Z,99.90
2022-08-23T18:31:31.200Z,99.90
2022-08-23T18:34:00.675Z,99.90
2022-08-23T18:36:29.823Z,99.90
2022-08-23T18:38:59.018Z,99.90
2022-08-23T18:41:27.112Z,99.90
2022-08-23T18:43:55.066Z,99.90
2022-08-23T18:46:23.221Z,99.90
2022-08-23T18:48:53.784Z,99.90
2022-08-23T18:51:23.168Z,99.90
2022-08-23T18:53:51.301Z,99.90
2022-08-23T18:56:21.219Z,99.90
2022-08-23T18:58:49.527Z,99.90
2022-08-23T19:01:22.338Z,99.90
2022-08-23T19:03:50.926Z,99.90
2022-08-23T19:06:19.812Z,99.90
2022-08-23T19:08:48.735Z,99.90
2022-08-23T19:11:17.179Z,99.90
2022-08-23T19:13:46.706Z,99.90
2022-08-23T19:16:16.549Z,99.90
2022-08-23T19:18:46.552Z,99.90
2022-08-23T19:21:16.231Z,99.90
2022-08-23T19:23:46.613Z,99.90
2022-08-23T19:26:16.303Z,99.90
2022-08-23T19:28:45.764Z,99.90
2022-08-23T19:31:14.342Z,99.90
2022-08-23T19:33:42.760Z,99.90
2022-08-23T19:36:29.207Z,99.90
2022-08-23T19:38:57.744Z,99.90
2022-08-23T19:41:25.573Z,99.90
2022-08-23T19:43:55.467Z,99.90
2022-08-23T19:46:23.907Z,99.90
2022-08-23T19:48:54.027Z,99.90
2022-08-23T19:51:22.121Z,99.90
2022-08-23T19:56:48.647Z,99.90
2022-08-23T19:59:20.259Z,99.90
2022-08-23T20:01:49.641Z,99.90
2022-08-23T20:04:17.772Z,99.90
2022-08-23T20:06:45.884Z,99.90
2022-08-23T20:09:14.037Z,99.90
2022-08-23T20:11:42.562Z,99.90
2022-08-23T20:14:12.415Z,99.90
2022-08-23T20:16:41.067Z,99.90
2022-08-23T20:19:10.539Z,99.90
2022-08-23T20:21:39.245Z,99.90
2022-08-23T20:24:06.900Z,99.90
2022-08-23T20:26:40.617Z,99.90
2022-08-23T20:29:12.279Z,99.90
2022-08-23T20:31:50.064Z,99.90
2022-08-23T20:34:18.772Z,99.90
2022-08-23T20:36:48.799Z,99.90
2022-08-23T20:39:20.439Z,99.90
2022-08-23T20:41:52.263Z,99.90
2022-08-23T20:44:22.303Z,99.90
2022-08-23T20:46:53.968Z,99.90
2022-08-23T20:49:24.477Z,99.90
2022-08-23T20:51:53.343Z,99.90
2022-08-23T20:54:21.599Z,99.90
2022-08-23T20:56:52.922Z,99.90
2022-08-23T20:59:25.876Z,99.90
2022-08-23T21:01:53.956Z,99.90
2022-08-23T21:04:22.282Z,99.90
2022-08-23T21:06:58.221Z,99.90
2022-08-23T21:09:29.113Z,99.90
2022-08-23T21:11:58.111Z,99.90
2022-08-23T21:14:27.481Z,99.90
2022-08-23T21:16:55.421Z,99.90
2022-08-23T21:19:23.304Z,99.90
2022-08-23T21:21:51.638Z,99.90
2022-08-23T21:24:19.843Z,99.90
2022-08-23T21:26:47.866Z,99.90
2022-08-23T21:29:16.166Z,99.90
2022-08-23T21:31:45.722Z,99.90
2022-08-23T21:34:17.524Z,99.90
2022-08-23T21:36:45.570Z,99.90
2022-08-23T21:39:13.779Z,99.90
2022-08-23T21:41:43.688Z,99.90
2022-08-23T21:44:14.011Z,99.90
2022-08-23T21:46:42.490Z,99.90
2022-08-23T21:49:12.807Z,99.90
2022-08-23T21:51:41.604Z,99.90
2022-08-23T21:54:11.623Z,99.90
2022-08-23T21:56:40.748Z,99.90
2022-08-23T21:59:10.542Z,99.90
2022-08-23T22:01:39.096Z,99.90
2022-08-23T22:04:08.991Z,99.90
2022-08-23T22:06:39.850Z,99.90
2022-08-23T22:09:10.604Z,99.90
2022-08-23T22:11:41.323Z,99.90
2022-08-23T22:14:11.746Z,99.90
2022-08-23T22:16:40.992Z,99.90
2022-08-23T22:19:08.927Z,99.90
2022-08-23T22:21:38.448Z,99.90
2022-08-23T22:24:07.164Z,99.90
2022-08-23T22:26:35.542Z,99.90
2022-08-23T22:29:04.309Z,99.90
2022-08-23T22:31:32.672Z,99.90
2022-08-23T22:34:01.237Z,99.90
2022-08-23T22:36:30.047Z,99.90
2022-08-23T22:38:59.567Z,99.90
2022-08-23T22:41:29.304Z,99.90
2022-08-23T22:43:59.232Z,99.90
2022-08-23T22:46:29.715Z,99.90
2022-08-23T22:48:58.360Z,99.90
2022-08-23T22:51:28.057Z,99.90
2022-08-23T22:53:59.892Z,99.90
2022-08-23T22:56:30.517Z,99.90
2022-08-23T22:58:59.612Z,99.90
2022-08-23T23:01:30.691Z,99.90
2022-08-23T23:04:00.739Z,99.90
2022-08-23T23:06:29.861Z,99.90
2022-08-23T23:08:59.397Z,99.90
2022-08-23T23:11:29.393Z,99.90
2022-08-23T23:13:58.434Z,99.90
2022-08-23T23:16:30.353Z,99.90
2022-08-23T23:19:16.658Z,99.90
2022-08-23T23:21:47.793Z,99.90
2022-08-23T23:24:19.841Z,99.90
2022-08-23T23:26:48.570Z,99.90
2022-08-23T23:29:17.013Z,99.90
2022-08-23T23:31:45.397Z,99.90
2022-08-23T23:34:13.917Z,99.90
2022-08-23T23:36:42.082Z,99.90
2022-08-23T23:39:11.957Z,99.90
2022-08-23T23:41:41.782Z,99.90
2022-08-23T23:44:10.116Z,99.90
2022-08-23T23:46:38.084Z,99.90
2022-08-23T23:49:06.514Z,99.90
2022-08-23T23:51:34.983Z,99.90
2022-08-23T23:54:03.365Z,99.90
2022-08-23T23:56:35.891Z,99.90
2022-08-23T23:59:05.317Z,99.90
